createdAt,value
2023-01-29T00:00:00.592Z,17.67
2023-01-29T00:02:27.354Z,16.45
2023-01-29T00:04:58.694Z,15.82
2023-01-29T00:07:26.026Z,16.00
2023-01-29T00:09:53.227Z,16.63
2023-01-29T00:12:20.056Z,16.98
2023-01-29T00:14:47.647Z,17.85
2023-01-29T00:17:14.988Z,16.80
2023-01-29T00:19:42.083Z,17.63
2023-01-29T00:22:09.130Z,18.25
2023-01-29T00:24:36.062Z,17.15
2023-01-29T00:27:03.106Z,17.48
2023-01-29T00:29:30.055Z,17.45
2023-01-29T00:31:56.842Z,17.55
2023-01-29T00:34:23.846Z,19.00
2023-01-29T00:36:50.637Z,18.73
2023-01-29T00:39:17.416Z,18.85
2023-01-29T00:42:03.900Z,18.00
2023-01-29T00:44:49.309Z,19.17
2023-01-29T00:47:31.635Z,18.10
2023-01-29T00:49:58.635Z,19.50
2023-01-29T00:52:25.667Z,19.10
2023-01-29T00:54:57.635Z,19.55
2023-01-29T00:57:26.899Z,19.45
2023-01-29T00:59:54.360Z,20.15
2023-01-29T01:02:40.731Z,20.20
2023-01-29T01:05:10.275Z,19.15
2023-01-29T01:07:37.186Z,19.52
2023-01-29T01:10:22.237Z,19.38
2023-01-29T01:12:55.049Z,19.90
2023-01-29T01:15:23.702Z,18.35
2023-01-29T01:17:58.803Z,19.88
2023-01-29T01:20:28.312Z,19.33
2023-01-29T01:22:55.130Z,20.58
2023-01-29T01:25:25.423Z,19.73
2023-01-29T01:27:56.454Z,20.25
2023-01-29T01:30:24.116Z,20.50
2023-01-29T01:32:51.946Z,20.42
2023-01-29T01:35:19.108Z,19.50
2023-01-29T01:37:45.941Z,18.65
2023-01-29T01:40:18.347Z,20.42
2023-01-29T01:42:48.698Z,20.52
2023-01-29T01:45:21.594Z,19.73
2023-01-29T01:47:52.019Z,19.30
2023-01-29T01:50:23.982Z,20.10
2023-01-29T01:52:53.808Z,19.70
2023-01-29T01:55:25.407Z,19.77
2023-01-29T01:57:56.567Z,18.70
2023-01-29T02:00:26.353Z,19.30
2023-01-29T02:03:12.140Z,20.85
2023-01-29T02:05:58.024Z,20.02
2023-01-29T02:09:05.880Z,20.20
2023-01-29T02:11:35.803Z,21.17
2023-01-29T02:14:03.700Z,20.27
2023-01-29T02:16:31.005Z,20.20
2023-01-29T02:18:58.049Z,21.25
2023-01-29T02:21:49.835Z,20.67
2023-01-29T02:24:28.824Z,20.52
2023-01-29T02:27:00.225Z,19.35
2023-01-29T02:30:06.016Z,19.27
2023-01-29T02:32:54.796Z,19.38
2023-01-29T02:35:32.151Z,20.90
2023-01-29T02:38:12.932Z,20.52
2023-01-29T02:40:51.032Z,19.85
2023-01-29T02:43:35.580Z,20.17
2023-01-29T02:46:17.084Z,21.40
2023-01-29T02:49:02.226Z,19.02
2023-01-29T02:51:36.952Z,19.98
2023-01-29T02:54:08.846Z,19.80
2023-01-29T02:56:50.501Z,20.50
2023-01-29T02:59:21.916Z,20.40
2023-01-29T03:02:01.527Z,20.38
2023-01-29T03:04:31.598Z,20.40
2023-01-29T03:07:04.623Z,20.58
2023-01-29T03:09:39.671Z,21.50
2023-01-29T03:12:20.152Z,19.88
2023-01-29T03:15:08.000Z,19.48
2023-01-29T03:17:58.126Z,20.95
2023-01-29T03:20:29.889Z,22.15
2023-01-29T03:23:02.822Z,22.52
2023-01-29T03:25:49.272Z,21.40
2023-01-29T03:28:36.903Z,21.23
2023-01-29T03:31:24.779Z,20.73
2023-01-29T03:34:01.370Z,21.35
2023-01-29T03:36:45.634Z,21.80
2023-01-29T03:39:14.258Z,20.15
2023-01-29T03:41:57.923Z,19.73
2023-01-29T03:44:49.097Z,20.33
2023-01-29T03:47:35.451Z,21.10
2023-01-29T03:50:03.800Z,21.67
2023-01-29T03:52:39.890Z,20.85
2023-01-29T03:55:21.320Z,20.27
2023-01-29T03:57:54.402Z,20.35
2023-01-29T04:00:38.038Z,20.33
2023-01-29T04:03:20.153Z,20.75
2023-01-29T04:05:52.960Z,20.88
2023-01-29T04:08:29.239Z,20.08
2023-01-29T04:10:59.847Z,20.85
2023-01-29T04:13:27.443Z,18.40
2023-01-29T04:15:57.394Z,20.17
2023-01-29T04:18:45.308Z,20.15
2023-01-29T04:21:12.228Z,19.13
2023-01-29T04:23:39.044Z,19.25
2023-01-29T04:26:08.160Z,19.90
2023-01-29T04:28:54.858Z,18.45
2023-01-29T04:31:27.331Z,20.05
2023-01-29T04:34:12.907Z,20.02
2023-01-29T04:36:57.984Z,18.80
2023-01-29T04:39:27.203Z,19.95
2023-01-29T04:42:21.807Z,19.42
2023-01-29T04:45:13.187Z,18.58
2023-01-29T04:47:47.452Z,19.33
2023-01-29T04:50:26.476Z,18.77
2023-01-29T04:52:59.145Z,19.45
2023-01-29T04:55:30.476Z,20.13
2023-01-29T04:58:25.798Z,20.27
2023-01-29T05:00:54.262Z,18.17
2023-01-29T05:03:23.841Z,19.85
2023-01-29T05:05:51.446Z,18.67
2023-01-29T05:08:21.876Z,19.17
2023-01-29T05:10:50.064Z,18.45
2023-01-29T05:13:17.644Z,19.63
2023-01-29T05:15:48.027Z,18.63
2023-01-29T05:18:14.771Z,18.65
2023-01-29T05:20:43.567Z,17.75
2023-01-29T05:23:16.771Z,18.80
2023-01-29T05:25:44.227Z,18.75
2023-01-29T05:28:17.398Z,19.75
2023-01-29T05:30:52.348Z,19.45
2023-01-29T05:33:27.888Z,17.67
2023-01-29T05:35:55.727Z,17.85
2023-01-29T05:38:23.107Z,18.67
2023-01-29T05:40:50.417Z,19.20
2023-01-29T05:43:21.686Z,18.85
2023-01-29T05:45:56.823Z,18.17
2023-01-29T05:48:24.533Z,17.45
2023-01-29T05:50:52.024Z,18.08
2023-01-29T05:53:18.983Z,18.75
2023-01-29T05:55:49.302Z,17.90
2023-01-29T05:58:16.207Z,18.27
2023-01-29T06:00:42.999Z,17.20
2023-01-29T06:03:09.848Z,18.33
2023-01-29T06:05:40.321Z,16.40
2023-01-29T06:08:08.164Z,16.63
2023-01-29T06:10:35.095Z,18.00
2023-01-29T06:13:01.810Z,18.25
2023-01-29T06:15:28.768Z,17.83
2023-01-29T06:17:56.329Z,17.55
2023-01-29T06:20:23.688Z,18.50
2023-01-29T06:22:50.506Z,18.63
2023-01-29T06:25:17.348Z,18.88
2023-01-29T06:27:44.279Z,18.48
2023-01-29T06:30:11.849Z,17.77
2023-01-29T06:32:38.703Z,17.80
2023-01-29T06:35:06.048Z,18.02
2023-01-29T06:37:32.916Z,17.10
2023-01-29T06:39:59.900Z,18.40
2023-01-29T06:42:28.146Z,17.88
2023-01-29T06:44:55.854Z,17.33
2023-01-29T06:47:23.546Z,17.65
2023-01-29T06:49:50.608Z,17.90
2023-01-29T06:52:17.371Z,18.00
2023-01-29T06:54:44.262Z,17.90
2023-01-29T06:57:11.083Z,16.63
2023-01-29T06:59:37.837Z,17.65
2023-01-29T07:02:04.743Z,17.55
2023-01-29T07:04:34.674Z,18.40
2023-01-29T07:07:01.591Z,19.13
2023-01-29T07:09:28.406Z,17.40
2023-01-29T07:11:56.295Z,17.63
2023-01-29T07:14:23.209Z,17.45
2023-01-29T07:16:50.146Z,17.83
2023-01-29T07:19:16.889Z,18.67
2023-01-29T07:21:43.757Z,18.35
2023-01-29T07:24:10.611Z,18.33
2023-01-29T07:26:37.543Z,18.70
2023-01-29T07:29:05.236Z,17.65
2023-01-29T07:31:32.265Z,16.85
2023-01-29T07:34:00.021Z,19.70
2023-01-29T07:36:27.252Z,16.92
2023-01-29T07:38:54.022Z,17.70
2023-01-29T07:41:20.944Z,17.23
2023-01-29T07:43:48.231Z,17.02
2023-01-29T07:46:15.364Z,18.80
2023-01-29T07:48:42.169Z,18.85
2023-01-29T07:51:11.015Z,17.50
2023-01-29T07:53:38.090Z,17.58
2023-01-29T07:56:05.251Z,17.90
2023-01-29T07:58:32.774Z,18.88
2023-01-29T08:00:59.958Z,19.98
2023-01-29T08:03:26.708Z,19.27
2023-01-29T08:05:53.353Z,18.58
2023-01-29T08:08:20.334Z,18.70
2023-01-29T08:10:47.090Z,18.95
2023-01-29T08:13:14.393Z,19.17
2023-01-29T08:15:45.472Z,18.42
2023-01-29T08:18:21.732Z,18.23
2023-01-29T08:20:48.600Z,18.40
2023-01-29T08:23:16.600Z,18.83
2023-01-29T08:25:43.548Z,18.73
2023-01-29T08:28:11.839Z,19.08
2023-01-29T08:30:39.067Z,19.42
2023-01-29T08:33:08.043Z,18.50
2023-01-29T08:35:34.941Z,20.10
2023-01-29T08:38:03.465Z,19.00
2023-01-29T08:40:32.432Z,18.80
2023-01-29T08:43:08.019Z,20.02
2023-01-29T08:45:37.993Z,17.90
2023-01-29T08:48:05.146Z,19.02
2023-01-29T08:50:33.053Z,18.80
2023-01-29T08:53:02.517Z,19.38
2023-01-29T08:55:30.189Z,21.85
2023-01-29T08:57:59.762Z,20.52
2023-01-29T09:00:26.933Z,20.88
2023-01-29T09:02:53.865Z,21.75
2023-01-29T09:05:20.768Z,19.15
2023-01-29T09:07:47.698Z,21.02
2023-01-29T09:10:14.561Z,20.38
2023-01-29T09:12:41.384Z,20.75
2023-01-29T09:15:08.668Z,20.38
2023-01-29T09:17:35.532Z,19.38
2023-01-29T09:20:02.286Z,21.67
2023-01-29T09:22:29.076Z,19.63
2023-01-29T09:24:56.045Z,20.45
2023-01-29T09:27:23.173Z,20.65
2023-01-29T09:29:50.068Z,21.35
2023-01-29T09:32:31.871Z,20.90
2023-01-29T09:35:04.796Z,22.30
2023-01-29T09:37:31.783Z,21.35
2023-01-29T09:39:58.790Z,20.60
2023-01-29T09:42:30.970Z,20.65
2023-01-29T09:45:25.088Z,20.42
2023-01-29T09:47:59.618Z,19.60
2023-01-29T09:50:35.313Z,20.85
2023-01-29T09:53:11.998Z,20.40
2023-01-29T09:55:47.114Z,19.83
2023-01-29T09:58:22.457Z,18.67
2023-01-29T10:01:14.179Z,19.70
2023-01-29T10:03:52.873Z,20.40
2023-01-29T10:06:25.666Z,19.70
2023-01-29T10:08:59.207Z,19.77
2023-01-29T10:11:40.853Z,18.27
2023-01-29T10:14:43.221Z,19.02
2023-01-29T10:17:49.422Z,18.98
2023-01-29T10:20:28.460Z,18.95
2023-01-29T10:23:11.086Z,20.33
2023-01-29T10:25:40.568Z,19.05
2023-01-29T10:28:16.717Z,19.75
2023-01-29T10:30:48.577Z,19.20
2023-01-29T10:33:23.536Z,20.30
2023-01-29T10:35:55.369Z,20.33
2023-01-29T10:38:34.066Z,19.55
2023-01-29T10:41:03.929Z,20.75
2023-01-29T10:43:38.773Z,19.95
2023-01-29T10:46:41.335Z,19.65
2023-01-29T10:49:30.245Z,18.65
2023-01-29T10:52:25.749Z,19.10
2023-01-29T10:54:58.744Z,19.98
2023-01-29T10:57:40.723Z,19.50
2023-01-29T11:00:21.708Z,19.23
2023-01-29T11:03:12.491Z,19.48
2023-01-29T11:06:35.349Z,17.73
2023-01-29T11:09:22.745Z,19.27
2023-01-29T11:12:10.838Z,18.50
2023-01-29T11:15:15.198Z,17.60
2023-01-29T11:18:03.938Z,18.45
2023-01-29T11:20:32.623Z,18.80
2023-01-29T11:23:02.966Z,19.52
2023-01-29T11:25:32.638Z,18.85
2023-01-29T11:28:01.857Z,18.30
2023-01-29T11:30:30.612Z,20.27
2023-01-29T11:33:22.020Z,19.17
2023-01-29T11:35:49.130Z,20.42
2023-01-29T11:38:15.835Z,18.52
2023-01-29T11:40:43.688Z,18.50
2023-01-29T11:43:20.976Z,19.08
2023-01-29T11:45:53.607Z,17.70
2023-01-29T11:48:22.359Z,18.27
2023-01-29T11:51:04.303Z,18.42
2023-01-29T11:53:56.389Z,19.65
2023-01-29T11:56:29.848Z,17.85
2023-01-29T11:58:57.734Z,18.65
2023-01-29T12:01:37.238Z,17.88
2023-01-29T12:04:19.564Z,16.95
2023-01-29T12:06:49.220Z,18.02
2023-01-29T12:09:18.638Z,18.70
2023-01-29T12:11:45.633Z,16.00
2023-01-29T12:14:36.106Z,16.75
2023-01-29T12:17:25.049Z,17.08
2023-01-29T12:20:01.431Z,16.63
2023-01-29T12:22:45.915Z,17.20
2023-01-29T12:25:34.719Z,17.10
2023-01-29T12:28:13.415Z,16.50
2023-01-29T12:30:59.333Z,16.85
2023-01-29T12:33:50.981Z,16.83
2023-01-29T12:36:26.011Z,16.90
2023-01-29T12:38:53.019Z,17.25
2023-01-29T12:41:28.715Z,16.88
2023-01-29T12:43:59.736Z,15.95
2023-01-29T12:46:32.989Z,16.45
2023-01-29T12:49:02.238Z,15.52
2023-01-29T12:51:38.129Z,15.85
2023-01-29T12:54:08.911Z,14.90
2023-01-29T12:56:47.626Z,15.68
2023-01-29T12:59:24.555Z,14.15
2023-01-29T13:02:12.379Z,14.68
2023-01-29T13:04:50.799Z,13.07
2023-01-29T13:07:23.755Z,14.02
2023-01-29T13:09:55.704Z,14.15
2023-01-29T13:12:23.340Z,12.30
2023-01-29T13:15:00.713Z,12.70
2023-01-29T13:17:39.656Z,12.68
2023-01-29T13:20:18.672Z,12.05
2023-01-29T13:22:46.830Z,11.50
2023-01-29T13:25:18.683Z,11.93
2023-01-29T13:27:48.089Z,11.10
2023-01-29T13:30:28.221Z,10.57
2023-01-29T13:32:56.080Z,11.25
2023-01-29T13:35:23.913Z,11.45
2023-01-29T13:37:55.271Z,10.43
2023-01-29T13:40:26.025Z,10.83
2023-01-29T13:42:54.391Z,10.63
2023-01-29T13:45:33.248Z,10.98
2023-01-29T13:48:32.023Z,11.07
2023-01-29T13:51:03.047Z,9.88
2023-01-29T13:53:37.380Z,9.00
2023-01-29T13:56:30.565Z,9.43
2023-01-29T13:58:57.923Z,8.70
2023-01-29T14:01:46.767Z,8.80
2023-01-29T14:04:21.712Z,9.50
2023-01-29T14:06:53.400Z,9.73
2023-01-29T14:09:31.136Z,9.02
2023-01-29T14:11:58.193Z,8.30
2023-01-29T14:14:48.201Z,8.43
2023-01-29T14:17:19.655Z,8.68
2023-01-29T14:19:50.895Z,8.70
2023-01-29T14:22:26.835Z,8.73
2023-01-29T14:24:55.712Z,8.60
2023-01-29T14:27:25.527Z,8.77
2023-01-29T14:30:00.016Z,7.88
2023-01-29T14:32:26.840Z,8.15
2023-01-29T14:34:53.521Z,9.38
2023-01-29T14:37:25.238Z,9.02
2023-01-29T14:39:53.557Z,9.02
2023-01-29T14:42:29.482Z,9.27
2023-01-29T14:45:07.709Z,8.20
2023-01-29T14:47:34.492Z,9.25
2023-01-29T14:50:20.554Z,9.13
2023-01-29T14:52:48.449Z,9.30
2023-01-29T14:55:57.347Z,9.82
2023-01-29T14:58:27.598Z,10.20
2023-01-29T15:00:56.087Z,8.90
2023-01-29T15:03:35.885Z,9.73
2023-01-29T15:06:04.954Z,9.48
2023-01-29T15:08:41.877Z,10.48
2023-01-29T15:11:33.279Z,10.33
2023-01-29T15:14:11.278Z,9.48
2023-01-29T15:16:59.518Z,10.73
2023-01-29T15:19:35.255Z,10.23
2023-01-29T15:22:15.137Z,10.43
2023-01-29T15:24:43.099Z,10.57
2023-01-29T15:27:18.648Z,10.18
2023-01-29T15:29:57.619Z,10.90
2023-01-29T15:32:33.726Z,9.93
2023-01-29T15:35:00.951Z,10.87
2023-01-29T15:37:33.327Z,11.23
2023-01-29T15:40:01.321Z,10.40
2023-01-29T15:42:30.254Z,10.53
2023-01-29T15:44:57.350Z,11.33
2023-01-29T15:47:28.149Z,10.53
2023-01-29T15:49:57.475Z,10.47
2023-01-29T15:52:28.858Z,10.63
2023-01-29T15:54:57.309Z,11.53
2023-01-29T15:57:27.555Z,10.93
2023-01-29T15:59:54.949Z,10.90
2023-01-29T16:02:35.933Z,11.30
2023-01-29T16:05:11.026Z,11.67
2023-01-29T16:07:45.127Z,11.48
2023-01-29T16:10:21.460Z,10.75
2023-01-29T16:12:55.046Z,11.35
2023-01-29T16:15:38.025Z,11.37
2023-01-29T16:18:20.969Z,11.93
2023-01-29T16:20:52.462Z,10.63
2023-01-29T16:23:22.368Z,11.88
2023-01-29T16:25:49.855Z,12.23
2023-01-29T16:28:17.652Z,12.30
2023-01-29T16:30:44.475Z,11.75
2023-01-29T16:33:14.908Z,11.43
2023-01-29T16:35:42.177Z,12.38
2023-01-29T16:38:27.510Z,11.68
2023-01-29T16:41:36.130Z,12.75
2023-01-29T16:44:22.775Z,12.52
2023-01-29T16:46:53.073Z,12.40
2023-01-29T16:49:26.166Z,13.02
2023-01-29T16:51:54.748Z,13.18
2023-01-29T16:54:24.644Z,13.57
2023-01-29T16:56:59.888Z,13.32
2023-01-29T16:59:35.974Z,14.18
2023-01-29T17:02:04.664Z,13.65
2023-01-29T17:04:31.689Z,14.07
2023-01-29T17:07:00.160Z,13.70
2023-01-29T17:09:35.402Z,14.23
2023-01-29T17:12:07.553Z,14.05
2023-01-29T17:14:35.957Z,13.68
2023-01-29T17:17:06.281Z,13.07
2023-01-29T17:19:34.115Z,13.90
2023-01-29T17:22:04.704Z,13.60
2023-01-29T17:24:32.961Z,14.60
2023-01-29T17:27:00.823Z,14.27
2023-01-29T17:29:30.132Z,15.85
2023-01-29T17:31:59.906Z,13.15
2023-01-29T17:34:26.752Z,14.55
2023-01-29T17:36:53.702Z,14.40
2023-01-29T17:39:22.980Z,14.73
2023-01-29T17:41:55.014Z,14.20
2023-01-29T17:44:22.422Z,15.23
2023-01-29T17:46:49.924Z,13.80
2023-01-29T17:49:28.087Z,14.93
2023-01-29T17:51:56.378Z,14.70
2023-01-29T17:54:23.870Z,14.13
2023-01-29T17:56:51.880Z,15.45
2023-01-29T17:59:21.214Z,14.63
2023-01-29T18:01:48.473Z,14.52
2023-01-29T18:04:15.653Z,15.95
2023-01-29T18:06:44.013Z,15.68
2023-01-29T18:09:15.419Z,15.52
2023-01-29T18:11:42.950Z,14.70
2023-01-29T18:14:14.232Z,15.73
2023-01-29T18:16:43.341Z,14.73
2023-01-29T18:19:22.429Z,15.10
2023-01-29T18:21:50.045Z,15.43
2023-01-29T18:24:16.886Z,15.52
2023-01-29T18:26:44.127Z,15.52
2023-01-29T18:29:10.969Z,14.57
2023-01-29T18:31:37.745Z,15.98
2023-01-29T18:34:04.999Z,15.77
2023-01-29T18:36:32.343Z,16.27
2023-01-29T18:38:59.308Z,16.40
2023-01-29T18:41:26.175Z,15.88
2023-01-29T18:43:53.360Z,15.18
2023-01-29T18:46:20.267Z,15.10
2023-01-29T18:48:46.984Z,16.17
2023-01-29T18:51:14.189Z,16.15
2023-01-29T18:53:41.031Z,14.63
2023-01-29T18:56:08.431Z,15.77
2023-01-29T18:58:37.167Z,14.63
2023-01-29T19:01:10.233Z,16.02
2023-01-29T19:03:38.068Z,16.05
2023-01-29T19:06:07.301Z,15.07
2023-01-29T19:08:34.716Z,16.60
2023-01-29T19:11:03.982Z,16.10
2023-01-29T19:13:31.906Z,15.68
2023-01-29T19:15:59.028Z,15.63
2023-01-29T19:18:26.916Z,16.42
2023-01-29T19:20:54.206Z,16.00
2023-01-29T19:23:22.260Z,17.25
2023-01-29T19:25:49.085Z,16.10
2023-01-29T19:28:16.137Z,15.18
2023-01-29T19:30:42.988Z,16.40
2023-01-29T19:33:15.801Z,16.90
2023-01-29T19:35:45.947Z,15.85
2023-01-29T19:38:18.524Z,16.45
2023-01-29T19:40:45.372Z,16.80
2023-01-29T19:43:15.246Z,16.67
2023-01-29T19:45:50.453Z,15.35
2023-01-29T19:48:22.022Z,16.73
2023-01-29T19:50:57.072Z,18.50
2023-01-29T19:53:24.675Z,17.77
2023-01-29T19:56:04.527Z,17.77
2023-01-29T19:58:32.292Z,20.17
2023-01-29T20:01:05.516Z,18.55
2023-01-29T20:03:32.670Z,17.45
2023-01-29T20:06:05.678Z,17.25
2023-01-29T20:08:34.972Z,17.27
2023-01-29T20:11:02.191Z,17.42
2023-01-29T20:13:29.152Z,18.80
2023-01-29T20:15:56.412Z,17.85
2023-01-29T20:18:23.280Z,17.90
2023-01-29T20:20:53.090Z,17.15
2023-01-29T20:23:36.652Z,16.80
2023-01-29T20:26:05.060Z,17.50
2023-01-29T20:28:31.877Z,16.55
2023-01-29T20:30:59.236Z,17.45
2023-01-29T20:33:26.730Z,16.52
2023-01-29T20:36:01.602Z,17.70
2023-01-29T20:38:31.771Z,16.92
2023-01-29T20:41:09.798Z,17.13
2023-01-29T20:43:37.600Z,17.92
2023-01-29T20:46:04.939Z,17.23
2023-01-29T20:48:32.138Z,17.38
2023-01-29T20:51:07.974Z,16.45
2023-01-29T20:53:35.595Z,17.25
2023-01-29T20:56:04.625Z,16.38
2023-01-29T20:58:31.812Z,17.08
2023-01-29T21:00:58.561Z,17.27
2023-01-29T21:03:25.592Z,17.02
2023-01-29T21:05:54.293Z,16.92
2023-01-29T21:08:21.067Z,16.73
2023-01-29T21:10:49.564Z,16.77
2023-01-29T21:13:16.340Z,16.77
2023-01-29T21:15:43.146Z,17.10
2023-01-29T21:18:10.508Z,15.90
2023-01-29T21:20:37.297Z,17.77
2023-01-29T21:23:06.831Z,15.45
2023-01-29T21:25:34.031Z,16.20
2023-01-29T21:28:01.047Z,16.83
2023-01-29T21:30:27.897Z,16.50
2023-01-29T21:32:54.698Z,15.98
2023-01-29T21:35:21.824Z,16.48
2023-01-29T21:37:48.694Z,16.85
2023-01-29T21:40:16.596Z,17.02
2023-01-29T21:43:02.250Z,17.50
2023-01-29T21:45:29.311Z,16.05
2023-01-29T21:47:56.073Z,16.25
2023-01-29T21:50:25.704Z,17.45
2023-01-29T21:52:52.383Z,17.73
2023-01-29T21:55:19.318Z,17.10
2023-01-29T21:57:47.201Z,16.10
2023-01-29T22:00:14.854Z,17.38
2023-01-29T22:02:42.199Z,16.33
2023-01-29T22:05:19.429Z,17.17
2023-01-29T22:07:47.771Z,16.90
2023-01-29T22:10:16.269Z,16.92
2023-01-29T22:12:44.801Z,15.18
2023-01-29T22:15:13.017Z,15.40
2023-01-29T22:17:41.563Z,17.02
2023-01-29T22:20:10.362Z,17.73
2023-01-29T22:22:50.341Z,16.27
2023-01-29T22:25:20.322Z,15.60
2023-01-29T22:27:47.820Z,16.13
2023-01-29T22:30:19.218Z,15.68
2023-01-29T22:32:51.501Z,16.50
2023-01-29T22:35:18.965Z,15.60
2023-01-29T22:37:46.096Z,16.08
2023-01-29T22:40:14.190Z,15.73
2023-01-29T22:42:41.120Z,16.15
2023-01-29T22:45:08.752Z,16.73
2023-01-29T22:47:35.471Z,16.50
2023-01-29T22:50:02.787Z,15.63
2023-01-29T22:52:38.294Z,16.20
2023-01-29T22:55:12.394Z,16.00
2023-01-29T22:57:40.014Z,16.37
2023-01-29T23:00:10.233Z,15.82
2023-01-29T23:02:37.707Z,15.98
2023-01-29T23:05:04.842Z,16.53
2023-01-29T23:07:31.619Z,16.03
2023-01-29T23:09:58.697Z,16.30
2023-01-29T23:12:26.003Z,16.63
2023-01-29T23:14:52.737Z,15.68
2023-01-29T23:17:19.729Z,15.47
2023-01-29T23:19:46.493Z,16.17
2023-01-29T23:22:13.573Z,16.40
2023-01-29T23:24:40.707Z,15.17
2023-01-29T23:27:17.354Z,16.05
2023-01-29T23:29:48.566Z,15.90
2023-01-29T23:32:18.904Z,15.48
2023-01-29T23:34:45.877Z,15.60
2023-01-29T23:37:13.129Z,14.67
2023-01-29T23:39:39.928Z,15.00
2023-01-29T23:42:06.833Z,14.87
2023-01-29T23:44:33.615Z,14.30
2023-01-29T23:47:00.427Z,14.27
2023-01-29T23:49:27.433Z,14.82
2023-01-29T23:51:54.225Z,15.17
2023-01-29T23:54:20.959Z,14.23
2023-01-29T23:56:47.907Z,14.30
2023-01-29T23:59:15.835Z,14.73
